createdAt,value
2023-06-27T00:00:37.622Z,70.22
2023-06-27T00:01:37.700Z,70.22
2023-06-27T00:02:37.797Z,70.42
2023-06-27T00:03:37.861Z,70.83
2023-06-27T00:04:37.957Z,70.46
2023-06-27T00:05:38.172Z,70.66
2023-06-27T00:06:38.070Z,71.26
2023-06-27T00:07:38.136Z,70.86
2023-06-27T00:08:38.217Z,71.67
2023-06-27T00:09:38.334Z,71.67
2023-06-27T00:10:38.405Z,72.17
2023-06-27T00:11:38.422Z,72.21
2023-06-27T00:12:38.504Z,72.21
2023-06-27T00:13:38.565Z,71.70
2023-06-27T00:14:38.773Z,71.77
2023-06-27T00:15:38.900Z,72.07
2023-06-27T00:16:38.793Z,71.97
2023-06-27T00:17:38.928Z,71.40
2023-06-27T00:18:38.956Z,71.70
2023-06-27T00:19:39.027Z,71.70
2023-06-27T00:20:39.130Z,72.41
2023-06-27T00:21:39.202Z,72.71
2023-06-27T00:22:39.311Z,72.31
2023-06-27T00:23:39.347Z,72.51
2023-06-27T00:24:39.444Z,72.11
2023-06-27T00:25:39.665Z,72.21
2023-06-27T00:26:39.629Z,71.70
2023-06-27T00:27:39.695Z,72.41
2023-06-27T00:28:39.821Z,72.00
2023-06-27T00:29:39.858Z,72.11
2023-06-27T00:30:39.968Z,72.71
2023-06-27T00:31:40.013Z,72.00
2023-06-27T00:32:40.070Z,72.21
2023-06-27T00:33:40.133Z,72.11
2023-06-27T00:34:40.205Z,72.71
2023-06-27T00:35:40.691Z,72.81
2023-06-27T00:36:40.394Z,73.66
2023-06-27T00:37:40.444Z,72.64
2023-06-27T00:38:40.521Z,72.95
2023-06-27T00:39:40.631Z,73.35
2023-06-27T00:40:40.699Z,73.66
2023-06-27T00:41:40.756Z,73.25
2023-06-27T00:42:40.848Z,73.55
2023-06-27T00:43:40.950Z,73.86
2023-06-27T00:44:40.984Z,73.55
2023-06-27T00:45:41.235Z,74.30
2023-06-27T00:46:41.133Z,74.06
2023-06-27T00:47:41.287Z,73.99
2023-06-27T00:48:41.292Z,74.60
2023-06-27T00:49:41.366Z,74.50
2023-06-27T00:50:41.425Z,75.01
2023-06-27T00:51:41.533Z,74.50
2023-06-27T00:52:41.631Z,74.40
2023-06-27T00:53:41.663Z,74.40
2023-06-27T00:54:41.743Z,74.19
2023-06-27T00:55:42.097Z,74.50
2023-06-27T00:56:41.902Z,74.70
2023-06-27T00:57:42.008Z,74.60
2023-06-27T00:58:42.083Z,75.10
2023-06-27T00:59:42.191Z,75.61
2023-06-27T01:00:42.225Z,75.21
2023-06-27T01:01:42.298Z,75.31
2023-06-27T01:02:42.471Z,75.61
2023-06-27T01:03:42.621Z,75.71
2023-06-27T01:04:42.525Z,75.81
2023-06-27T01:05:42.816Z,75.92
2023-06-27T01:06:42.695Z,75.71
2023-06-27T01:07:42.762Z,76.15
2023-06-27T01:08:42.897Z,76.15
2023-06-27T01:09:43.025Z,75.65
2023-06-27T01:10:42.996Z,76.05
2023-06-27T01:11:43.097Z,76.15
2023-06-27T01:12:43.149Z,76.86
2023-06-27T01:13:43.213Z,76.46
2023-06-27T01:14:43.289Z,76.26
2023-06-27T01:15:43.488Z,76.26
2023-06-27T01:16:43.444Z,76.56
2023-06-27T01:17:43.549Z,76.97
2023-06-27T01:18:43.592Z,76.76
2023-06-27T01:19:43.684Z,77.06
2023-06-27T01:20:43.817Z,76.66
2023-06-27T01:21:43.862Z,76.86
2023-06-27T01:22:45.231Z,77.06
2023-06-27T01:23:44.043Z,76.97
2023-06-27T01:24:44.118Z,76.76
2023-06-27T01:25:44.260Z,76.86
2023-06-27T01:26:44.328Z,77.06
2023-06-27T01:27:44.416Z,76.97
2023-06-27T01:28:44.467Z,76.97
2023-06-27T01:29:44.565Z,77.17
2023-06-27T01:30:44.665Z,76.97
2023-06-27T01:31:44.778Z,77.50
2023-06-27T01:32:44.873Z,77.71
2023-06-27T01:33:46.528Z,78.11
2023-06-27T01:34:44.995Z,78.42
2023-06-27T01:35:45.037Z,78.52
2023-06-27T01:36:45.150Z,78.25
2023-06-27T01:37:45.172Z,78.31
2023-06-27T01:38:45.257Z,78.72
2023-06-27T01:39:45.324Z,78.42
2023-06-27T01:40:45.396Z,78.62
2023-06-27T01:41:45.527Z,78.42
2023-06-27T01:42:45.566Z,78.52
2023-06-27T01:43:45.628Z,78.86
2023-06-27T01:44:45.710Z,78.52
2023-06-27T01:45:45.821Z,79.16
2023-06-27T01:46:45.885Z,78.96
2023-06-27T01:47:46.064Z,79.16
2023-06-27T01:48:46.013Z,78.86
2023-06-27T01:49:46.080Z,79.16
2023-06-27T01:50:46.180Z,79.26
2023-06-27T01:51:46.219Z,79.46
2023-06-27T01:52:46.380Z,79.36
2023-06-27T01:53:46.395Z,79.57
2023-06-27T01:54:46.480Z,79.06
2023-06-27T01:55:46.607Z,79.06
2023-06-27T01:56:46.700Z,79.06
2023-06-27T01:57:46.761Z,79.46
2023-06-27T01:58:46.860Z,79.67
2023-06-27T01:59:46.928Z,79.67
2023-06-27T02:00:47.138Z,79.67
2023-06-27T02:01:47.103Z,79.77
2023-06-27T02:02:47.247Z,79.97
2023-06-27T02:03:47.304Z,79.97
2023-06-27T02:04:47.358Z,80.21
2023-06-27T02:05:47.438Z,80.01
2023-06-27T02:06:47.561Z,79.91
2023-06-27T02:07:47.626Z,80.01
2023-06-27T02:08:47.753Z,80.31
2023-06-27T02:09:47.858Z,80.82
2023-06-27T02:10:47.876Z,81.02
2023-06-27T02:11:47.955Z,80.62
2023-06-27T02:12:48.060Z,81.02
2023-06-27T02:13:48.157Z,81.23
2023-06-27T02:14:48.267Z,80.62
2023-06-27T02:15:48.334Z,80.62
2023-06-27T02:16:48.414Z,80.72
2023-06-27T02:17:48.556Z,80.72
2023-06-27T02:18:48.618Z,80.82
2023-06-27T02:19:48.710Z,80.92
2023-06-27T02:20:48.791Z,80.72
2023-06-27T02:21:48.933Z,80.62
2023-06-27T02:22:48.954Z,81.02
2023-06-27T02:23:49.040Z,80.92
2023-06-27T02:24:49.124Z,81.23
2023-06-27T02:25:49.258Z,80.86
2023-06-27T02:26:49.288Z,80.92
2023-06-27T02:27:49.388Z,80.92
2023-06-27T02:28:49.470Z,80.72
2023-06-27T02:29:49.553Z,80.82
2023-06-27T02:30:49.730Z,81.23
2023-06-27T02:31:49.723Z,81.02
2023-06-27T02:32:49.829Z,81.23
2023-06-27T02:33:49.831Z,81.26
2023-06-27T02:34:49.910Z,81.23
2023-06-27T02:35:50.053Z,81.46
2023-06-27T02:36:50.083Z,81.63
2023-06-27T02:37:50.170Z,82.07
2023-06-27T02:38:50.255Z,81.77
2023-06-27T02:39:50.340Z,81.87
2023-06-27T02:40:50.444Z,82.17
2023-06-27T02:41:50.511Z,81.87
2023-06-27T02:42:50.562Z,81.87
2023-06-27T02:43:50.647Z,81.97
2023-06-27T02:44:50.816Z,82.48
2023-06-27T02:45:50.807Z,82.68
2023-06-27T02:46:50.990Z,82.89
2023-06-27T02:47:51.012Z,82.78
2023-06-27T02:48:51.033Z,82.78
2023-06-27T02:49:51.184Z,82.98
2023-06-27T02:50:51.188Z,82.89
2023-06-27T02:51:51.349Z,82.98
2023-06-27T02:52:51.356Z,83.29
2023-06-27T02:53:51.413Z,83.18
2023-06-27T02:54:51.534Z,82.89
2023-06-27T02:55:51.588Z,83.33
2023-06-27T02:56:51.696Z,82.98
2023-06-27T02:57:51.757Z,83.18
2023-06-27T02:58:51.828Z,82.98
2023-06-27T02:59:51.912Z,83.18
2023-06-27T03:00:51.985Z,83.18
2023-06-27T03:01:52.116Z,83.43
2023-06-27T03:02:52.296Z,83.33
2023-06-27T03:03:57.539Z,83.43
2023-06-27T03:04:53.357Z,83.63
2023-06-27T03:05:52.444Z,83.23
2023-06-27T03:06:52.558Z,83.59
2023-06-27T03:07:52.581Z,83.33
2023-06-27T03:08:52.713Z,83.43
2023-06-27T03:09:52.708Z,83.53
2023-06-27T03:10:52.789Z,83.43
2023-06-27T03:11:52.863Z,83.33
2023-06-27T03:12:52.935Z,83.53
2023-06-27T03:13:53.048Z,83.63
2023-06-27T03:14:53.087Z,83.63
2023-06-27T03:15:53.174Z,83.43
2023-06-27T03:16:53.250Z,83.53
2023-06-27T03:17:53.416Z,83.94
2023-06-27T03:18:53.443Z,83.83
2023-06-27T03:19:53.477Z,83.43
2023-06-27T03:20:53.610Z,83.94
2023-06-27T03:21:53.655Z,83.73
2023-06-27T03:22:53.740Z,83.73
2023-06-27T03:23:53.847Z,83.63
2023-06-27T03:24:53.958Z,83.94
2023-06-27T03:25:53.998Z,83.73
2023-06-27T03:26:54.099Z,83.73
2023-06-27T03:27:54.133Z,83.83
2023-06-27T03:28:54.209Z,84.04
2023-06-27T03:29:54.331Z,83.94
2023-06-27T03:30:54.413Z,83.53
2023-06-27T03:31:54.525Z,83.63
2023-06-27T03:32:54.618Z,83.73
2023-06-27T03:33:54.617Z,83.63
2023-06-27T03:34:54.689Z,83.73
2023-06-27T03:35:54.768Z,84.04
2023-06-27T03:36:54.906Z,84.18
2023-06-27T03:37:54.937Z,83.73
2023-06-27T03:38:55.007Z,84.28
2023-06-27T03:39:55.140Z,83.67
2023-06-27T03:40:55.184Z,83.77
2023-06-27T03:41:55.299Z,83.47
2023-06-27T03:42:55.340Z,83.63
2023-06-27T03:43:55.437Z,83.67
2023-06-27T03:44:55.526Z,83.63
2023-06-27T03:45:55.578Z,83.03
2023-06-27T03:46:55.698Z,83.03
2023-06-27T03:48:03.304Z,83.12
2023-06-27T03:48:55.834Z,82.92
2023-06-27T03:49:55.930Z,83.12
2023-06-27T03:50:56.011Z,82.92
2023-06-27T03:51:56.154Z,82.92
2023-06-27T03:52:56.207Z,83.12
2023-06-27T03:53:56.295Z,82.92
2023-06-27T03:54:56.386Z,83.26
2023-06-27T03:55:56.465Z,83.12
2023-06-27T03:56:56.600Z,83.23
2023-06-27T03:57:56.647Z,82.92
2023-06-27T03:58:56.731Z,82.45
2023-06-27T03:59:56.816Z,83.23
2023-06-27T04:00:56.889Z,82.82
2023-06-27T04:01:57.016Z,82.92
2023-06-27T04:02:57.139Z,82.92
2023-06-27T04:03:57.264Z,83.33
2023-06-27T04:04:57.386Z,82.62
2023-06-27T04:05:57.301Z,83.12
2023-06-27T04:06:57.411Z,82.62
2023-06-27T04:07:57.437Z,83.03
2023-06-27T04:08:57.555Z,82.82
2023-06-27T04:09:57.600Z,82.62
2023-06-27T04:10:57.700Z,82.82
2023-06-27T04:11:57.756Z,82.72
2023-06-27T04:12:57.829Z,82.82
2023-06-27T04:13:57.974Z,82.52
2023-06-27T04:14:58.004Z,82.52
2023-06-27T04:15:58.082Z,82.52
2023-06-27T04:16:58.210Z,82.82
2023-06-27T04:17:58.286Z,82.42
2023-06-27T04:18:58.390Z,82.52
2023-06-27T04:19:58.431Z,82.52
2023-06-27T04:20:58.507Z,82.72
2023-06-27T04:21:58.612Z,82.42
2023-06-27T04:22:58.688Z,82.21
2023-06-27T04:23:58.783Z,82.31
2023-06-27T04:24:58.870Z,82.82
2023-06-27T04:25:58.913Z,82.21
2023-06-27T04:26:58.997Z,81.87
2023-06-27T04:27:59.094Z,81.37
2023-06-27T04:28:59.165Z,81.37
2023-06-27T04:29:59.280Z,81.57
2023-06-27T04:30:59.409Z,81.97
2023-06-27T04:31:59.390Z,81.57
2023-06-27T04:32:59.474Z,81.06
2023-06-27T04:33:59.518Z,81.26
2023-06-27T04:34:59.631Z,80.96
2023-06-27T04:35:59.697Z,81.16
2023-06-27T04:36:59.764Z,81.87
2023-06-27T04:37:59.879Z,80.96
2023-06-27T04:38:59.948Z,81.23
2023-06-27T04:40:00.090Z,81.02
2023-06-27T04:41:00.190Z,80.62
2023-06-27T04:42:00.243Z,80.82
2023-06-27T04:43:00.301Z,80.82
2023-06-27T04:44:00.388Z,81.43
2023-06-27T04:45:00.478Z,81.12
2023-06-27T04:46:00.574Z,80.41
2023-06-27T04:47:00.686Z,80.27
2023-06-27T04:48:00.804Z,79.97
2023-06-27T04:49:00.817Z,80.41
2023-06-27T04:50:00.924Z,80.47
2023-06-27T04:51:03.574Z,80.11
2023-06-27T04:52:01.074Z,80.41
2023-06-27T04:53:01.177Z,80.27
2023-06-27T04:54:01.261Z,79.97
2023-06-27T04:55:01.333Z,79.36
2023-06-27T04:56:01.500Z,79.57
2023-06-27T04:58:01.581Z,79.77
2023-06-27T04:59:01.675Z,79.83
2023-06-27T05:00:01.793Z,79.53
2023-06-27T05:01:01.944Z,79.46
2023-06-27T05:02:01.940Z,79.87
2023-06-27T05:03:02.125Z,78.96
2023-06-27T05:04:02.127Z,79.83
2023-06-27T05:05:02.267Z,78.31
2023-06-27T05:06:02.292Z,79.43
2023-06-27T05:07:02.427Z,78.82
2023-06-27T05:08:02.489Z,78.21
2023-06-27T05:09:02.599Z,77.67
2023-06-27T05:10:02.606Z,77.13
2023-06-27T05:11:02.708Z,77.73
2023-06-27T05:12:02.784Z,77.17
2023-06-27T05:13:02.914Z,77.57
2023-06-27T05:14:02.992Z,75.92
2023-06-27T05:15:03.017Z,76.82
2023-06-27T05:16:03.112Z,77.47
2023-06-27T05:17:03.191Z,77.03
2023-06-27T05:18:03.314Z,77.03
2023-06-27T05:19:03.414Z,76.22
2023-06-27T05:20:03.423Z,75.75
2023-06-27T05:21:03.503Z,76.05
2023-06-27T05:22:03.585Z,76.26
2023-06-27T05:23:03.669Z,76.46
2023-06-27T05:24:03.796Z,77.06
2023-06-27T05:25:03.851Z,75.41
2023-06-27T05:26:03.952Z,75.48
2023-06-27T05:27:04.031Z,74.73
2023-06-27T05:28:04.113Z,74.63
2023-06-27T05:29:04.239Z,73.11
2023-06-27T05:30:04.307Z,73.62
2023-06-27T05:31:04.492Z,73.82
2023-06-27T05:32:04.550Z,74.13
2023-06-27T05:33:04.697Z,74.13
2023-06-27T05:34:04.657Z,74.22
2023-06-27T05:35:04.692Z,73.75
2023-06-27T05:36:04.765Z,75.01
2023-06-27T05:37:04.873Z,75.37
2023-06-27T05:38:04.948Z,74.87
2023-06-27T05:39:05.086Z,75.57
2023-06-27T05:40:05.161Z,74.77
2023-06-27T05:41:05.213Z,74.87
2023-06-27T05:42:05.355Z,74.06
2023-06-27T05:43:05.389Z,74.37
2023-06-27T05:44:05.481Z,74.63
2023-06-27T05:45:05.571Z,73.93
2023-06-27T05:46:05.667Z,75.13
2023-06-27T05:47:05.803Z,73.93
2023-06-27T05:48:05.932Z,74.33
2023-06-27T05:49:05.938Z,73.82
2023-06-27T05:50:06.048Z,74.26
2023-06-27T05:51:06.080Z,75.24
2023-06-27T05:52:06.200Z,73.82
2023-06-27T05:53:06.262Z,73.22
2023-06-27T05:54:06.343Z,72.17
2023-06-27T05:55:06.448Z,72.71
2023-06-27T05:56:06.517Z,73.11
2023-06-27T05:57:06.642Z,74.16
2023-06-27T05:58:06.689Z,74.19
2023-06-27T05:59:06.778Z,73.75
2023-06-27T06:00:06.908Z,73.46
2023-06-27T06:01:06.962Z,73.62
2023-06-27T06:02:07.139Z,72.51
2023-06-27T06:03:07.218Z,73.42
2023-06-27T06:04:07.314Z,72.17
2023-06-27T06:05:07.344Z,72.78
2023-06-27T06:06:07.414Z,71.47
2023-06-27T06:07:07.552Z,71.57
2023-06-27T06:08:07.612Z,72.27
2023-06-27T06:09:07.673Z,70.86
2023-06-27T06:10:07.757Z,71.06
2023-06-27T06:11:07.839Z,71.26
2023-06-27T06:12:07.931Z,71.37
2023-06-27T06:13:08.055Z,71.44
2023-06-27T06:14:08.094Z,71.06
2023-06-27T06:15:08.426Z,71.77
2023-06-27T06:16:08.235Z,73.11
2023-06-27T06:17:08.309Z,71.91
2023-06-27T06:18:08.514Z,72.31
2023-06-27T06:19:08.498Z,70.36
2023-06-27T06:20:08.638Z,69.95
2023-06-27T06:21:08.697Z,71.47
2023-06-27T06:22:08.783Z,70.86
2023-06-27T06:23:08.897Z,71.57
2023-06-27T06:24:08.988Z,71.17
2023-06-27T06:25:09.011Z,69.85
2023-06-27T06:26:09.137Z,70.76
2023-06-27T06:27:09.131Z,71.06
2023-06-27T06:28:09.247Z,72.17
2023-06-27T06:29:09.309Z,69.92
2023-06-27T06:30:09.404Z,70.46
2023-06-27T06:31:09.544Z,70.83
2023-06-27T06:32:09.607Z,70.59
2023-06-27T06:33:09.655Z,69.52
2023-06-27T06:34:09.726Z,68.88
2023-06-27T06:35:09.819Z,69.79
2023-06-27T06:36:09.963Z,70.12
2023-06-27T06:37:10.048Z,70.56
2023-06-27T06:38:10.319Z,70.06
2023-06-27T06:39:10.094Z,69.95
2023-06-27T06:40:10.172Z,70.56
2023-06-27T06:41:10.295Z,69.82
2023-06-27T06:42:10.392Z,68.57
2023-06-27T06:43:10.440Z,68.41
2023-06-27T06:44:10.524Z,70.26
2023-06-27T06:45:10.629Z,70.73
2023-06-27T06:46:10.740Z,72.14
2023-06-27T06:47:10.849Z,69.59
2023-06-27T06:48:10.924Z,68.48
2023-06-27T06:49:10.999Z,70.22
2023-06-27T06:50:11.073Z,70.62
2023-06-27T06:51:11.160Z,69.68
2023-06-27T06:52:11.286Z,71.57
2023-06-27T06:53:11.317Z,69.95
2023-06-27T06:54:11.385Z,67.43
2023-06-27T06:55:11.476Z,69.08
2023-06-27T06:56:11.557Z,67.60
2023-06-27T06:57:11.747Z,69.55
2023-06-27T06:58:12.133Z,70.36
2023-06-27T06:59:11.845Z,69.65
2023-06-27T07:00:11.928Z,70.29
2023-06-27T07:01:12.054Z,70.49
2023-06-27T07:02:12.160Z,70.19
2023-06-27T07:03:12.210Z,69.78
2023-06-27T07:04:12.326Z,69.58
2023-06-27T07:05:12.377Z,70.26
2023-06-27T07:06:12.480Z,68.41
2023-06-27T07:07:12.624Z,69.21
2023-06-27T07:08:12.653Z,69.38
2023-06-27T07:09:12.742Z,67.33
2023-06-27T07:10:12.840Z,67.94
2023-06-27T07:11:12.924Z,69.49
2023-06-27T07:12:13.038Z,67.57
2023-06-27T07:13:13.076Z,66.09
2023-06-27T07:14:13.164Z,67.63
2023-06-27T07:15:13.280Z,67.16
2023-06-27T07:16:13.335Z,68.37
2023-06-27T07:17:13.437Z,68.81
2023-06-27T07:18:13.494Z,68.74
2023-06-27T07:19:13.581Z,69.55
2023-06-27T07:20:13.726Z,68.41
2023-06-27T07:21:13.754Z,68.68
2023-06-27T07:22:13.832Z,68.48
2023-06-27T07:23:13.915Z,66.73
2023-06-27T07:24:14.024Z,66.53
2023-06-27T07:25:14.152Z,65.09
2023-06-27T07:26:14.218Z,64.89
2023-06-27T07:27:14.273Z,64.18
2023-06-27T07:28:14.350Z,64.28
2023-06-27T07:29:14.446Z,65.46
2023-06-27T07:30:14.530Z,63.01
2023-06-27T07:31:14.706Z,62.91
2023-06-27T07:32:14.682Z,63.21
2023-06-27T07:33:16.695Z,62.58
2023-06-27T07:34:15.536Z,64.09
2023-06-27T07:35:14.948Z,63.42
2023-06-27T07:36:15.062Z,63.79
2023-06-27T07:37:15.077Z,65.59
2023-06-27T07:38:15.150Z,64.82
2023-06-27T07:39:15.228Z,64.52
2023-06-27T07:40:15.292Z,64.02
2023-06-27T07:41:15.407Z,64.86
2023-06-27T07:42:15.502Z,64.48
2023-06-27T07:43:15.561Z,64.38
2023-06-27T07:44:15.622Z,64.69
2023-06-27T07:45:15.701Z,66.13
2023-06-27T07:46:15.952Z,65.01
2023-06-27T07:47:15.900Z,65.22
2023-06-27T07:48:15.921Z,66.83
2023-06-27T07:49:16.043Z,65.22
2023-06-27T07:50:16.091Z,66.13
2023-06-27T07:51:16.144Z,64.92
2023-06-27T07:52:16.296Z,66.13
2023-06-27T07:53:16.344Z,66.70
2023-06-27T07:54:16.388Z,64.07
2023-06-27T07:55:16.476Z,64.28
2023-06-27T07:56:16.573Z,64.18
2023-06-27T07:57:16.660Z,64.69
2023-06-27T07:58:16.769Z,64.69
2023-06-27T07:59:16.811Z,63.27
2023-06-27T08:00:16.933Z,66.83
2023-06-27T08:01:17.020Z,69.05
2023-06-27T08:02:17.274Z,70.29
2023-06-27T08:03:17.287Z,68.71
2023-06-27T08:04:17.223Z,69.11
2023-06-27T08:05:17.316Z,71.26
2023-06-27T08:06:17.432Z,75.51
2023-06-27T08:07:17.474Z,73.72
2023-06-27T08:08:17.582Z,75.74
2023-06-27T08:09:17.608Z,75.48
2023-06-27T08:10:17.693Z,74.87
2023-06-27T08:11:17.981Z,74.87
2023-06-27T08:12:17.874Z,72.51
2023-06-27T08:13:17.984Z,71.26
2023-06-27T08:14:18.061Z,71.84
2023-06-27T08:15:18.130Z,71.23
2023-06-27T08:16:18.218Z,70.09
2023-06-27T08:17:18.286Z,69.79
2023-06-27T08:18:18.496Z,68.04
2023-06-27T08:19:18.480Z,66.93
2023-06-27T08:20:18.549Z,66.30
2023-06-27T08:21:18.661Z,68.01
2023-06-27T08:22:18.732Z,66.56
2023-06-27T08:23:18.837Z,65.36
2023-06-27T08:24:18.889Z,68.38
2023-06-27T08:25:18.965Z,67.94
2023-06-27T08:26:19.108Z,69.35
2023-06-27T08:27:19.148Z,66.47
2023-06-27T08:28:19.227Z,66.19
2023-06-27T08:29:19.333Z,67.80
2023-06-27T08:30:19.379Z,67.50
2023-06-27T08:31:19.602Z,66.02
2023-06-27T08:32:19.521Z,66.42
2023-06-27T08:33:19.609Z,65.12
2023-06-27T08:34:19.715Z,66.33
2023-06-27T08:35:19.767Z,65.59
2023-06-27T08:36:19.817Z,63.45
2023-06-27T08:37:19.911Z,61.93
2023-06-27T08:38:19.987Z,64.92
2023-06-27T08:39:20.098Z,66.20
2023-06-27T08:40:20.175Z,64.56
2023-06-27T08:41:20.200Z,63.45
2023-06-27T08:42:20.291Z,62.98
2023-06-27T08:43:20.368Z,60.89
2023-06-27T08:44:20.460Z,63.62
2023-06-27T08:45:20.588Z,65.33
2023-06-27T08:46:20.651Z,64.12
2023-06-27T08:47:20.730Z,61.60
2023-06-27T08:48:20.818Z,62.94
2023-06-27T08:49:20.857Z,61.70
2023-06-27T08:50:20.945Z,59.79
2023-06-27T08:51:21.042Z,58.51
2023-06-27T08:52:21.091Z,59.52
2023-06-27T08:53:21.160Z,61.16
2023-06-27T08:54:21.280Z,61.76
2023-06-27T08:55:21.328Z,60.55
2023-06-27T08:56:21.440Z,61.25
2023-06-27T08:57:21.487Z,61.76
2023-06-27T08:58:21.564Z,62.90
2023-06-27T08:59:21.711Z,61.99
2023-06-27T09:00:21.744Z,62.40
2023-06-27T09:01:21.923Z,64.01
2023-06-27T09:02:22.027Z,61.69
2023-06-27T09:03:22.072Z,64.18
2023-06-27T09:04:22.115Z,64.78
2023-06-27T09:05:22.204Z,63.30
2023-06-27T09:06:22.276Z,64.89
2023-06-27T09:07:22.443Z,63.78
2023-06-27T09:08:22.449Z,64.69
2023-06-27T09:09:22.522Z,64.21
2023-06-27T09:10:22.584Z,65.25
2023-06-27T09:11:22.673Z,66.05
2023-06-27T09:12:22.797Z,66.69
2023-06-27T09:13:22.830Z,68.51
2023-06-27T09:14:22.909Z,66.89
2023-06-27T09:15:22.973Z,68.01
2023-06-27T09:16:23.128Z,68.37
2023-06-27T09:17:23.191Z,66.42
2023-06-27T09:18:23.300Z,66.39
2023-06-27T09:19:23.306Z,64.92
2023-06-27T09:20:23.375Z,63.31
2023-06-27T09:21:23.834Z,64.09
2023-06-27T09:22:23.538Z,61.94
2023-06-27T09:23:23.664Z,62.92
2023-06-27T09:24:23.703Z,60.98
2023-06-27T09:25:23.792Z,60.93
2023-06-27T09:26:23.872Z,59.55
2023-06-27T09:27:23.957Z,62.66
2023-06-27T09:28:24.054Z,63.96
2023-06-27T09:29:24.154Z,62.08
2023-06-27T09:30:24.188Z,60.81
2023-06-27T09:31:24.287Z,60.33
2023-06-27T09:32:24.422Z,59.19
2023-06-27T09:33:27.334Z,61.89
2023-06-27T09:34:24.575Z,61.85
2023-06-27T09:38:44.900Z,68.33
2023-06-27T09:39:24.946Z,71.06
2023-06-27T09:40:27.718Z,71.50
2023-06-27T09:41:25.095Z,71.80
2023-06-27T09:42:25.134Z,72.21
2023-06-27T09:43:25.204Z,73.02
2023-06-27T09:44:25.275Z,76.16
2023-06-27T09:45:25.344Z,75.04
2023-06-27T09:46:26.752Z,76.67
2023-06-27T09:47:25.578Z,75.25
2023-06-27T09:48:35.093Z,77.07
2023-06-27T09:49:25.682Z,76.26
2023-06-27T09:50:25.736Z,75.35
2023-06-27T09:51:25.809Z,76.43
2023-06-27T09:52:25.918Z,76.03
2023-06-27T09:53:25.996Z,77.10
2023-06-27T09:54:26.119Z,76.59
2023-06-27T09:55:26.132Z,75.85
2023-06-27T09:56:26.215Z,77.97
2023-06-27T09:57:26.318Z,78.64
2023-06-27T09:58:26.427Z,73.86
2023-06-27T09:59:26.526Z,76.28
2023-06-27T10:00:26.584Z,74.69
2023-06-27T10:01:26.660Z,78.63
2023-06-27T10:02:26.778Z,79.41
2023-06-27T10:03:26.909Z,76.84
2023-06-27T10:05:30.104Z,75.10
2023-06-27T10:06:28.190Z,74.35
2023-06-27T10:07:27.160Z,74.35
2023-06-27T10:08:27.221Z,76.23
2023-06-27T10:09:27.375Z,69.69
2023-06-27T10:10:27.409Z,68.68
2023-06-27T10:11:27.491Z,71.36
2023-06-27T10:12:27.574Z,69.76
2023-06-27T10:13:27.649Z,68.91
2023-06-27T10:14:27.762Z,69.02
2023-06-27T10:15:27.799Z,66.10
2023-06-27T10:16:27.877Z,69.72
2023-06-27T10:17:27.966Z,68.98
2023-06-27T10:18:28.024Z,64.36
2023-06-27T10:19:28.200Z,67.24
2023-06-27T10:20:28.209Z,67.04
2023-06-27T10:21:28.311Z,64.60
2023-06-27T10:22:28.401Z,64.30
2023-06-27T10:23:28.435Z,63.59
2023-06-27T10:24:28.576Z,62.16
2023-06-27T10:25:28.592Z,61.66
2023-06-27T10:26:28.665Z,60.25
2023-06-27T10:27:28.761Z,61.52
2023-06-27T10:28:28.832Z,60.32
2023-06-27T10:29:28.941Z,60.52
2023-06-27T10:30:29.014Z,61.33
2023-06-27T10:31:29.178Z,60.65
2023-06-27T10:32:29.217Z,61.58
2023-06-27T10:33:29.263Z,61.01
2023-06-27T10:34:29.301Z,62.02
2023-06-27T10:35:29.473Z,64.26
2023-06-27T10:36:29.497Z,63.48
2023-06-27T10:37:29.559Z,63.79
2023-06-27T10:38:29.638Z,64.59
2023-06-27T10:39:29.710Z,66.13
2023-06-27T10:40:29.867Z,66.36
2023-06-27T10:41:29.862Z,65.79
2023-06-27T10:42:30.048Z,65.99
2023-06-27T10:43:30.044Z,65.82
2023-06-27T10:44:30.144Z,66.93
2023-06-27T10:45:30.245Z,67.94
2023-06-27T10:46:30.300Z,66.96
2023-06-27T10:47:30.474Z,67.97
2023-06-27T10:48:30.449Z,66.05
2023-06-27T10:49:30.520Z,69.89
2023-06-27T10:50:30.589Z,69.79
2023-06-27T10:51:30.680Z,68.37
2023-06-27T10:52:30.808Z,66.29
2023-06-27T10:53:30.897Z,69.21
2023-06-27T10:54:30.929Z,68.41
2023-06-27T10:55:31.037Z,68.21
2023-06-27T10:56:31.168Z,68.10
2023-06-27T10:57:31.190Z,67.53
2023-06-27T10:58:31.248Z,67.02
2023-06-27T10:59:31.336Z,69.18
2023-06-27T11:00:31.426Z,72.04
2023-06-27T11:01:31.523Z,71.77
2023-06-27T11:02:31.810Z,71.64
2023-06-27T11:03:31.792Z,75.11
2023-06-27T11:04:31.878Z,75.55
2023-06-27T11:05:31.901Z,76.87
2023-06-27T11:06:32.016Z,76.16
2023-06-27T11:07:32.059Z,75.38
2023-06-27T11:08:32.089Z,77.01
2023-06-27T11:09:32.270Z,76.60
2023-06-27T11:10:32.168Z,76.90
2023-06-27T11:11:32.312Z,78.83
2023-06-27T11:12:32.331Z,77.61
2023-06-27T11:13:32.450Z,78.73
2023-06-27T11:14:32.469Z,80.35
2023-06-27T11:15:32.574Z,79.85
2023-06-27T11:16:32.701Z,80.25
2023-06-27T11:17:32.759Z,83.15
2023-06-27T11:18:32.883Z,78.19
2023-06-27T11:19:32.932Z,81.49
2023-06-27T11:20:33.018Z,81.99
2023-06-27T11:21:33.126Z,81.65
2023-06-27T11:22:33.198Z,82.53
2023-06-27T11:23:33.249Z,79.49
2023-06-27T11:24:33.312Z,80.66
2023-06-27T11:25:33.472Z,84.51
2023-06-27T11:26:36.291Z,80.73
2023-06-27T11:27:33.556Z,79.38
2023-06-27T11:28:33.649Z,80.49
2023-06-27T11:29:33.721Z,77.22
2023-06-27T11:30:33.908Z,77.22
2023-06-27T11:31:33.967Z,76.72
2023-06-27T11:32:35.574Z,79.41
2023-06-27T11:33:35.782Z,75.54
2023-06-27T11:34:34.116Z,74.73
2023-06-27T11:35:34.235Z,75.74
2023-06-27T11:36:34.271Z,72.88
2023-06-27T11:37:34.349Z,75.76
2023-06-27T11:38:34.448Z,70.83
2023-06-27T11:39:34.526Z,70.09
2023-06-27T11:40:34.602Z,71.80
2023-06-27T11:41:34.703Z,69.59
2023-06-27T11:42:34.756Z,68.98
2023-06-27T11:43:34.817Z,68.18
2023-06-27T11:44:34.899Z,70.66
2023-06-27T11:45:34.988Z,68.95
2023-06-27T11:46:35.091Z,68.65
2023-06-27T11:47:35.163Z,69.02
2023-06-27T11:48:35.230Z,67.91
2023-06-27T11:49:35.321Z,69.49
2023-06-27T11:50:35.394Z,68.88
2023-06-27T11:51:35.512Z,68.25
2023-06-27T11:52:35.568Z,68.95
2023-06-27T11:53:35.626Z,71.33
2023-06-27T11:54:35.682Z,69.59
2023-06-27T11:55:35.803Z,66.28
2023-06-27T11:56:35.882Z,64.77
2023-06-27T11:57:35.913Z,59.95
2023-06-27T11:58:36.010Z,62.26
2023-06-27T11:59:36.077Z,64.17
2023-06-27T12:00:36.147Z,62.96
2023-06-27T12:01:36.339Z,64.04
2023-06-27T12:02:36.351Z,62.63
2023-06-27T12:03:36.410Z,60.42
2023-06-27T12:04:36.476Z,62.33
2023-06-27T12:05:36.550Z,59.72
2023-06-27T12:06:36.652Z,59.99
2023-06-27T12:07:36.745Z,60.89
2023-06-27T12:08:36.757Z,61.19
2023-06-27T12:09:36.866Z,61.36
2023-06-27T12:10:36.898Z,61.17
2023-06-27T12:11:37.010Z,61.94
2023-06-27T12:12:37.047Z,63.11
2023-06-27T12:13:37.124Z,59.88
2023-06-27T12:14:37.187Z,59.00
2023-06-27T12:15:37.251Z,57.17
2023-06-27T12:16:37.387Z,59.58
2023-06-27T12:17:37.422Z,59.55
2023-06-27T12:18:37.486Z,61.45
2023-06-27T12:19:37.591Z,55.24
2023-06-27T12:20:37.702Z,55.30
2023-06-27T12:21:37.758Z,57.53
2023-06-27T12:22:37.821Z,56.96
2023-06-27T12:23:37.888Z,57.18
2023-06-27T12:24:37.985Z,55.30
2023-06-27T12:25:38.312Z,55.13
2023-06-27T12:26:38.142Z,55.46
2023-06-27T12:27:38.190Z,56.99
2023-06-27T12:28:38.264Z,58.60
2023-06-27T12:29:38.370Z,59.33
2023-06-27T12:30:38.536Z,58.45
2023-06-27T12:31:38.651Z,57.98
2023-06-27T12:32:38.638Z,58.74
2023-06-27T12:33:38.709Z,60.05
2023-06-27T12:34:38.753Z,61.18
2023-06-27T12:35:38.827Z,63.00
2023-06-27T12:36:38.901Z,62.49
2023-06-27T12:37:39.012Z,62.60
2023-06-27T12:38:39.050Z,61.49
2023-06-27T12:39:39.118Z,60.91
2023-06-27T12:40:39.477Z,61.41
2023-06-27T12:41:39.335Z,62.63
2023-06-27T12:42:39.428Z,63.53
2023-06-27T12:43:39.450Z,63.64
2023-06-27T12:44:39.568Z,64.92
2023-06-27T12:45:44.212Z,65.22
2023-06-27T12:46:39.689Z,64.81
2023-06-27T12:47:39.811Z,64.51
2023-06-27T12:48:39.850Z,61.89
2023-06-27T12:49:39.959Z,62.29
2023-06-27T12:50:40.324Z,63.37
2023-06-27T12:51:40.106Z,61.86
2023-06-27T12:52:40.144Z,63.07
2023-06-27T12:53:40.261Z,64.07
2023-06-27T12:54:40.290Z,61.36
2023-06-27T12:55:40.380Z,62.97
2023-06-27T12:56:40.446Z,62.04
2023-06-27T12:57:40.521Z,60.83
2023-06-27T12:58:40.629Z,61.13